Time;durP1;ratioP1;P1;durP2;ratioP2;P2;SDS_P1;SDS_P2;PMS_P1;PMS_P2;Temp;Humidity;BMP_temperature;BMP_pressure;BME280_temperature;BME280_humidity;BME280_pressure;Samples;Min_cycle;Max_cycle;Signal;HPM_P1;HPM_P2
2022/12/10 00:01:54;;;;;;;44.53;12.87;;;;;;;2.26;100.00;94993.81;5059127;28;20226;-71
2022/12/10 00:04:22;;;;;;;46.50;12.97;;;;;;;2.37;100.00;94983.09;5058519;28;20200;-71
2022/12/10 00:06:49;;;;;;;38.77;11.63;;;;;;;2.27;100.00;94985.03;5059249;28;20239;-70
2022/12/10 00:09:18;;;;;;;39.87;12.03;;;;;;;2.38;100.00;94992.53;5060115;28;20208;-69
2022/12/10 00:11:45;;;;;;;44.97;13.97;;;;;;;2.20;100.00;94995.25;5060128;28;20216;-71
2022/12/10 00:14:13;;;;;;;44.07;15.53;;;;;;;2.28;100.00;94997.88;5059702;28;20208;-69
2022/12/10 00:16:42;;;;;;;34.67;12.13;;;;;;;2.28;100.00;95002.22;5060860;28;20227;-71
2022/12/10 00:19:09;;;;;;;37.50;13.30;;;;;;;2.31;100.00;94992.34;5061338;28;20207;-70
2022/12/10 00:21:37;;;;;;;39.60;13.07;;;;;;;2.37;100.00;95003.88;5059265;28;20222;-70
2022/12/10 00:24:05;;;;;;;39.77;13.33;;;;;;;2.36;100.00;95002.28;5058780;28;20772;-68
2022/12/10 00:26:33;;;;;;;35.33;12.40;;;;;;;2.38;100.00;94998.56;5059416;28;20252;-70
2022/12/10 00:29:01;;;;;;;31.60;12.13;;;;;;;2.38;100.00;94992.53;5059511;28;20868;-71
2022/12/10 00:31:30;;;;;;;36.80;13.23;;;;;;;2.33;100.00;94993.03;5059581;28;20205;-69
2022/12/10 00:33:58;;;;;;;40.67;13.80;;;;;;;2.11;100.00;95001.34;5058964;28;20562;-71
2022/12/10 00:36:28;;;;;;;32.13;12.33;;;;;;;2.26;100.00;94997.19;5059667;28;20226;-71
2022/12/10 00:38:56;;;;;;;38.73;12.33;;;;;;;2.26;100.00;94986.00;5059235;28;20213;-70
2022/12/10 00:41:23;;;;;;;36.80;12.93;;;;;;;2.17;100.00;94992.94;5057072;28;20314;-70
2022/12/10 00:43:50;;;;;;;41.03;12.87;;;;;;;2.11;100.00;94985.75;5058007;28;20203;-70
2022/12/10 00:46:18;;;;;;;38.23;13.13;;;;;;;2.14;100.00;94995.03;5059099;28;20249;-71
2022/12/10 00:48:45;;;;;;;36.57;12.03;;;;;;;2.11;100.00;95000.56;5058519;28;20208;-71
2022/12/10 00:51:14;;;;;;;32.77;10.93;;;;;;;2.14;100.00;95001.06;5059343;28;20204;-71
2022/12/10 00:53:41;;;;;;;36.77;12.77;;;;;;;2.04;100.00;95002.16;5058689;28;20208;-71
2022/12/10 00:56:11;;;;;;;34.30;12.33;;;;;;;2.16;100.00;94998.31;5058057;28;20318;-69
2022/12/10 00:58:39;;;;;;;33.53;11.73;;;;;;;2.16;100.00;95004.31;5058985;28;20591;-71
2022/12/10 01:01:11;;;;;;;35.00;11.97;;;;;;;2.19;100.00;95009.22;5058949;28;20231;-69
2022/12/10 01:03:38;;;;;;;30.53;10.90;;;;;;;2.13;100.00;95003.81;5057770;28;20214;-71
2022/12/10 01:06:15;;;;;;;36.93;11.60;;;;;;;2.28;100.00;95010.88;5058884;28;20234;-69
2022/12/10 01:08:43;;;;;;;35.77;12.07;;;;;;;2.15;100.00;95007.06;5059133;28;20334;-69
2022/12/10 01:11:12;;;;;;;37.27;12.77;;;;;;;2.24;100.00;95000.94;5058539;28;20222;-71
2022/12/10 01:13:39;;;;;;;29.77;11.23;;;;;;;2.18;100.00;95006.78;5058236;28;20211;-71
2022/12/10 01:16:08;;;;;;;36.93;12.27;;;;;;;2.16;100.00;95011.28;5059169;28;20230;-71
2022/12/10 01:18:35;;;;;;;28.93;10.97;;;;;;;2.08;100.00;95000.88;5058545;28;20203;-69
2022/12/10 01:21:03;;;;;;;27.47;11.20;;;;;;;2.09;100.00;95003.31;5058534;28;20214;-71
2022/12/10 01:23:32;;;;;;;29.47;10.90;;;;;;;2.21;100.00;95004.66;5058423;28;20211;-71
2022/12/10 01:26:01;;;;;;;31.27;11.33;;;;;;;2.23;100.00;95010.50;5058956;28;20232;-71
2022/12/10 01:28:31;;;;;;;35.33;12.17;;;;;;;2.23;100.00;95014.88;5058182;28;20217;-71
2022/12/10 01:31:01;;;;;;;33.27;11.23;;;;;;;2.17;100.00;95015.53;5058500;28;20199;-70
2022/12/10 01:33:28;;;;;;;35.83;11.80;;;;;;;2.05;100.00;95007.19;5058253;28;20206;-70
2022/12/10 01:35:54;;;;;;;37.63;11.60;;;;;;;1.98;100.00;95005.38;5057755;28;20237;-68
2022/12/10 01:38:22;;;;;;;33.37;12.03;;;;;;;1.98;100.00;95000.19;5058527;28;20242;-69
2022/12/10 01:40:48;;;;;;;36.93;12.90;;;;;;;1.87;100.00;95003.03;5058344;28;20214;-71
2022/12/10 01:43:16;;;;;;;45.70;12.80;;;;;;;2.02;100.00;94996.28;5058176;28;20252;-69
2022/12/10 01:45:44;;;;;;;32.13;10.90;;;;;;;1.99;100.00;94994.03;5057865;28;20200;-70
2022/12/10 01:48:11;;;;;;;31.07;11.53;;;;;;;1.89;100.00;94996.72;5058591;28;20203;-68
2022/12/10 01:50:37;;;;;;;36.17;11.70;;;;;;;1.88;100.00;95007.25;5058721;28;20207;-70
2022/12/10 01:53:04;;;;;;;36.17;11.97;;;;;;;1.83;100.00;95006.91;5063516;28;20253;-69
2022/12/10 01:55:42;;;;;;;33.57;11.90;;;;;;;2.05;100.00;95003.75;5064518;28;20202;-71
2022/12/10 01:58:09;;;;;;;33.60;12.20;;;;;;;1.95;100.00;95005.69;5064725;28;20638;-70
2022/12/10 02:00:41;;;;;;;33.17;11.63;;;;;;;2.00;100.00;95004.25;5064654;28;20217;-69
2022/12/10 02:03:15;;;;;;;32.60;11.60;;;;;;;2.04;100.00;94999.56;5065241;28;20231;-71
2022/12/10 02:05:44;;;;;;;35.93;13.30;;;;;;;1.97;100.00;95014.97;5064762;28;20215;-71
2022/12/10 02:08:19;;;;;;;33.23;10.63;;;;;;;1.92;100.00;95016.38;5065361;28;20222;-71
2022/12/10 02:10:56;;;;;;;39.43;12.37;;;;;;;1.99;100.00;95009.59;5064462;28;20217;-71
2022/12/10 02:13:31;;;;;;;34.30;11.17;;;;;;;1.99;100.00;95007.81;5065114;28;20301;-69
2022/12/10 02:16:03;;;;;;;31.83;11.53;;;;;;;1.97;100.00;95003.72;5064178;28;20223;-71
2022/12/10 02:18:36;;;;;;;32.53;12.10;;;;;;;1.87;100.00;95010.81;5064858;28;20208;-71
2022/12/10 02:21:07;;;;;;;35.03;10.87;;;;;;;1.75;100.00;95006.06;5065214;28;20213;-71
2022/12/10 02:23:37;;;;;;;30.20;12.40;;;;;;;1.83;100.00;94994.75;5064611;28;20204;-71
2022/12/10 02:26:14;;;;;;;36.03;12.37;;;;;;;1.94;100.00;95004.84;5064040;28;20244;-71
2022/12/10 02:28:48;;;;;;;34.27;11.60;;;;;;;1.84;100.00;95008.53;5065479;28;20204;-68
2022/12/10 02:31:20;;;;;;;34.83;12.37;;;;;;;1.89;100.00;95003.69;5063677;28;20200;-71
2022/12/10 02:33:51;;;;;;;36.47;13.20;;;;;;;1.91;100.00;94999.19;5064019;28;20213;-70
2022/12/10 02:36:19;;;;;;;32.17;11.27;;;;;;;1.97;100.00;94998.53;5065310;28;20598;-69
2022/12/10 02:38:50;;;;;;;33.83;11.53;;;;;;;1.99;100.00;94994.03;5065012;28;20205;-71
2022/12/10 02:41:20;;;;;;;33.33;12.77;;;;;;;1.88;100.00;94989.09;5064440;28;20225;-72
2022/12/10 02:43:50;;;;;;;38.50;12.20;;;;;;;1.95;100.00;94982.31;5064897;28;20209;-71
2022/12/10 02:46:18;;;;;;;28.70;11.77;;;;;;;1.79;100.00;94982.22;5064138;28;20231;-72
2022/12/10 02:48:47;;;;;;;31.33;12.67;;;;;;;1.75;100.00;94980.91;5064775;28;20201;-72
2022/12/10 02:51:14;;;;;;;29.63;11.27;;;;;;;1.80;100.00;94988.25;5064197;28;20206;-71
2022/12/10 02:53:43;;;;;;;36.07;12.70;;;;;;;1.94;100.00;94998.88;5063635;28;20205;-72
2022/12/10 02:56:20;;;;;;;32.07;11.63;;;;;;;1.85;100.00;95010.19;5064307;28;20222;-71
2022/12/10 02:58:57;;;;;;;28.87;12.00;;;;;;;1.93;100.00;95008.41;5064991;28;20584;-70
2022/12/10 03:01:34;;;;;;;31.43;11.33;;;;;;;2.03;100.00;95014.31;5064344;28;21121;-71
2022/12/10 03:04:04;;;;;;;34.20;12.50;;;;;;;2.00;100.00;95011.25;5060716;28;20294;-71
2022/12/10 03:06:37;;;;;;;30.17;12.00;;;;;;;2.12;100.00;95030.78;5061309;28;20318;-71
2022/12/10 03:09:07;;;;;;;35.10;12.20;;;;;;;2.18;100.00;95025.75;5061623;28;20248;-69
2022/12/10 03:11:35;;;;;;;38.30;12.70;;;;;;;2.07;100.00;95022.63;5060768;28;20252;-71
2022/12/10 03:14:06;;;;;;;37.07;11.83;;;;;;;2.14;100.00;95015.81;5059967;28;20209;-69
2022/12/10 03:16:38;;;;;;;36.03;12.97;;;;;;;2.14;100.00;95016.66;5060921;28;20245;-72
2022/12/10 03:19:08;;;;;;;30.00;11.60;;;;;;;1.90;100.00;95000.94;5061426;28;20211;-71
2022/12/10 03:21:38;;;;;;;34.37;11.83;;;;;;;2.07;100.00;95001.84;5061076;28;20459;-69
2022/12/10 03:24:05;;;;;;;32.50;13.80;;;;;;;2.01;100.00;95005.06;5060930;28;20204;-71
2022/12/10 03:26:32;;;;;;;32.53;11.30;;;;;;;1.76;100.00;94995.53;5060684;28;20226;-72
2022/12/10 03:29:04;;;;;;;29.50;10.43;;;;;;;1.99;100.00;94994.81;5061707;28;20233;-71
2022/12/10 03:31:32;;;;;;;31.37;10.63;;;;;;;1.84;100.00;94990.38;5061186;28;20205;-72
2022/12/10 03:34:01;;;;;;;26.10;10.70;;;;;;;1.78;100.00;94996.16;5059992;28;20208;-70
2022/12/10 03:36:29;;;;;;;27.03;10.13;;;;;;;1.75;100.00;94993.88;5061455;28;20220;-71
2022/12/10 03:38:56;;;;;;;31.40;11.53;;;;;;;1.76;100.00;94985.13;5061892;28;20287;-71
2022/12/10 03:41:23;;;;;;;27.23;10.03;;;;;;;1.71;100.00;94989.19;5060803;28;20208;-70
2022/12/10 03:44:05;;;;;;;28.17;9.90;;;;;;;1.86;100.00;94994.44;5059779;28;21118;-70
2022/12/10 03:46:32;;;;;;;26.97;10.70;;;;;;;1.73;100.00;95015.78;5061179;28;20225;-70
2022/12/10 03:49:01;;;;;;;31.00;10.60;;;;;;;1.87;100.00;95008.22;5060032;28;20203;-71
2022/12/10 03:51:28;;;;;;;27.43;11.00;;;;;;;1.88;100.00;95012.47;5060204;28;20201;-71
2022/12/10 03:53:54;;;;;;;26.47;10.70;;;;;;;1.83;100.00;95014.69;5060616;28;20207;-72
2022/12/10 03:56:21;;;;;;;25.23;10.10;;;;;;;1.99;100.00;95017.41;5060382;28;20234;-69
2022/12/10 03:58:49;;;;;;;32.93;11.37;;;;;;;1.84;100.00;95019.72;5060013;28;20674;-68
2022/12/10 04:01:16;;;;;;;29.93;11.17;;;;;;;1.80;100.00;95020.22;5060705;28;20207;-69
2022/12/10 04:03:44;;;;;;;27.93;10.63;;;;;;;1.95;100.00;95010.88;5059921;28;20314;-69
2022/12/10 04:06:14;;;;;;;28.63;10.13;;;;;;;1.87;100.00;95011.66;5060015;28;21016;-70
2022/12/10 04:08:40;;;;;;;26.17;10.00;;;;;;;1.82;100.00;95020.88;5060370;28;20222;-70
2022/12/10 04:11:09;;;;;;;29.23;10.20;;;;;;;1.83;100.00;95019.88;5060029;28;20207;-70
2022/12/10 04:16:29;;;;;;;26.00;9.97;;;;;;;1.64;100.00;95024.50;5059827;28;21398;-70
2022/12/10 04:18:57;;;;;;;24.83;9.80;;;;;;;1.70;100.00;95016.09;5060372;28;20634;-70
2022/12/10 04:26:55;;;;;;;29.83;10.30;;;;;;;1.72;100.00;95017.56;5059808;28;20272;-69
2022/12/10 04:29:24;;;;;;;25.03;10.07;;;;;;;1.89;100.00;95011.50;5059445;28;20205;-71
2022/12/10 04:31:51;;;;;;;28.20;10.63;;;;;;;1.68;100.00;95005.88;5059753;28;20234;-71
2022/12/10 04:34:18;;;;;;;28.77;11.13;;;;;;;1.62;100.00;95001.28;5058965;28;20216;-72
2022/12/10 04:36:46;;;;;;;26.60;9.57;;;;;;;1.69;100.00;94989.31;5059395;28;20226;-71
2022/12/10 04:39:13;;;;;;;23.67;9.80;;;;;;;1.45;100.00;94998.72;5059262;28;20203;-72
2022/12/10 04:41:40;;;;;;;26.70;11.57;;;;;;;1.57;100.00;95006.13;5059856;28;20218;-72
2022/12/10 04:44:07;;;;;;;22.67;9.53;;;;;;;1.53;100.00;95002.19;5057997;28;20205;-71
2022/12/10 04:46:33;;;;;;;25.93;9.47;;;;;;;1.64;100.00;94994.13;5059054;28;20223;-71
2022/12/10 04:49:00;;;;;;;28.97;10.23;;;;;;;1.40;100.00;94999.19;5059200;28;21241;-69
2022/12/10 04:51:27;;;;;;;29.43;9.43;;;;;;;1.46;100.00;95008.94;5060080;28;20988;-69
2022/12/10 04:53:55;;;;;;;24.23;10.53;;;;;;;1.39;100.00;95000.16;5058577;28;20362;-69
2022/12/10 04:56:21;;;;;;;27.80;11.63;;;;;;;1.47;100.00;94997.63;5058799;28;20696;-71
2022/12/10 04:58:48;;;;;;;31.73;11.43;;;;;;;1.49;100.00;95000.03;5059176;28;20605;-71
2022/12/10 05:01:15;;;;;;;30.07;11.03;;;;;;;1.52;100.00;95002.34;5061189;28;20208;-69
2022/12/10 05:03:42;;;;;;;24.47;9.20;;;;;;;1.35;100.00;95001.44;5058842;28;20239;-70
2022/12/10 05:06:10;;;;;;;22.27;9.40;;;;;;;1.55;100.00;95004.63;5058902;28;20230;-69
2022/12/10 05:08:37;;;;;;;28.93;11.07;;;;;;;1.57;100.00;95000.94;5058986;28;20865;-69
2022/12/10 05:11:08;;;;;;;24.97;10.07;;;;;;;1.67;100.00;94996.44;5059356;28;20662;-72
2022/12/10 05:13:34;;;;;;;27.67;10.83;;;;;;;1.54;100.00;95006.44;5058085;28;20201;-69
2022/12/10 05:16:03;;;;;;;22.53;9.97;;;;;;;1.64;100.00;95012.31;5058588;28;20216;-72
2022/12/10 05:18:29;;;;;;;28.83;10.83;;;;;;;1.49;100.00;95024.25;5059052;28;20205;-71
2022/12/10 05:20:59;;;;;;;27.60;10.47;;;;;;;1.70;100.00;95021.28;5058757;28;20205;-70
2022/12/10 05:23:27;;;;;;;25.03;9.83;;;;;;;1.78;100.00;95024.72;5058149;28;20725;-71
2022/12/10 05:25:59;;;;;;;28.07;10.93;;;;;;;1.73;100.00;95021.78;5058185;28;20291;-71
2022/12/10 05:28:27;;;;;;;26.20;9.90;;;;;;;1.76;100.00;95008.50;5058424;28;20212;-69
2022/12/10 05:30:54;;;;;;;30.53;11.20;;;;;;;1.49;100.00;95013.03;5058634;28;20205;-72
2022/12/10 05:33:21;;;;;;;25.63;10.37;;;;;;;1.57;100.00;95013.91;5058538;28;20209;-71
2022/12/10 05:35:53;;;;;;;27.73;10.37;;;;;;;1.69;100.00;95025.66;5057445;28;20656;-69
2022/12/10 05:38:20;;;;;;;25.80;11.10;;;;;;;1.62;100.00;95039.41;5058559;28;20567;-70
2022/12/10 05:40:47;;;;;;;31.63;11.80;;;;;;;1.56;100.00;95040.81;5058538;28;20205;-72
2022/12/10 05:43:13;;;;;;;28.50;9.47;;;;;;;1.59;100.00;95050.09;5057697;28;20224;-72
2022/12/10 05:45:41;;;;;;;25.10;9.97;;;;;;;1.75;100.00;95037.22;5057625;28;20208;-69
2022/12/10 05:48:10;;;;;;;39.13;11.27;;;;;;;1.81;100.00;95033.03;5057984;28;20201;-70
2022/12/10 05:50:36;;;;;;;29.67;11.20;;;;;;;1.73;100.00;95032.16;5058552;28;20381;-71
2022/12/10 05:53:03;;;;;;;27.23;11.17;;;;;;;1.50;100.00;95041.44;5058005;28;20200;-72
2022/12/10 05:55:31;;;;;;;26.00;9.70;;;;;;;1.59;100.00;95035.34;5057471;28;20244;-71
2022/12/10 05:57:58;;;;;;;29.80;10.70;;;;;;;1.67;100.00;95042.34;5057770;28;20236;-71
2022/12/10 06:00:24;;;;;;;27.07;10.70;;;;;;;1.61;100.00;95046.38;5057582;28;20207;-72
2022/12/10 06:02:52;;;;;;;26.07;10.43;;;;;;;1.53;100.00;95051.50;5058773;28;20229;-72
2022/12/10 06:05:19;;;;;;;27.33;10.90;;;;;;;1.41;100.00;95041.53;5058183;28;20198;-70
2022/12/10 06:07:45;;;;;;;27.80;10.57;;;;;;;1.50;100.00;95041.44;5058212;28;20239;-71
2022/12/10 06:10:12;;;;;;;27.10;10.13;;;;;;;1.63;100.00;95047.06;5058051;28;20212;-70
2022/12/10 06:12:39;;;;;;;29.10;10.93;;;;;;;1.63;100.00;95047.06;5058628;28;20208;-71
2022/12/10 06:15:07;;;;;;;36.53;11.10;;;;;;;1.67;100.00;95050.13;5058349;28;20209;-70
2022/12/10 06:17:33;;;;;;;32.53;11.67;;;;;;;1.68;100.00;95054.38;5057870;28;20221;-72
2022/12/10 06:20:01;;;;;;;22.73;9.70;;;;;;;1.74;100.00;95058.97;5058272;28;20211;-72
2022/12/10 06:22:27;;;;;;;27.57;11.00;;;;;;;1.62;100.00;95055.00;5058597;28;20204;-72
2022/12/10 06:24:54;;;;;;;42.43;12.03;;;;;;;1.74;100.00;95051.97;5058189;28;20732;-71
2022/12/10 06:27:21;;;;;;;27.63;11.50;;;;;;;1.63;100.00;95052.25;5058512;28;21159;-72
2022/12/10 06:29:47;;;;;;;25.87;10.90;;;;;;;1.59;100.00;95047.50;5058925;28;20211;-70
2022/12/10 06:32:14;;;;;;;32.23;11.70;;;;;;;1.55;100.00;95054.75;5059605;28;20200;-71
2022/12/10 06:34:40;;;;;;;27.00;10.33;;;;;;;1.56;100.00;95051.19;5057755;28;20217;-70
2022/12/10 06:37:08;;;;;;;29.60;10.63;;;;;;;1.68;100.00;95051.78;5057455;28;20226;-71
2022/12/10 06:39:35;;;;;;;26.13;10.57;;;;;;;1.56;100.00;95053.00;5062502;28;20220;-72
2022/12/10 06:42:01;;;;;;;29.17;10.53;;;;;;;1.67;100.00;95053.56;5064012;28;20200;-71
2022/12/10 06:44:28;;;;;;;21.93;9.60;;;;;;;1.51;100.00;95060.41;5063538;28;20232;-71
2022/12/10 06:46:55;;;;;;;30.37;9.87;;;;;;;1.59;100.00;95063.91;5064429;28;20232;-71
2022/12/10 06:49:21;;;;;;;39.07;12.60;;;;;;;1.64;100.00;95064.22;5063810;28;20210;-70
2022/12/10 06:51:48;;;;;;;30.30;10.50;;;;;;;1.58;100.00;95067.47;5063391;28;20201;-70
2022/12/10 06:54:16;;;;;;;31.43;10.57;;;;;;;1.77;100.00;95075.06;5063688;28;20277;-70
2022/12/10 06:56:43;;;;;;;31.57;12.03;;;;;;;1.77;100.00;95075.06;5067281;28;20335;-70
2022/12/10 06:59:09;;;;;;;26.30;11.03;;;;;;;1.82;100.00;95078.81;5066094;28;20202;-72
2022/12/10 07:01:38;;;;;;;27.97;10.43;;;;;;;1.68;100.00;95083.75;5066556;28;20196;-71
2022/12/10 07:04:05;;;;;;;27.40;10.27;;;;;;;1.76;100.00;95076.00;5059585;28;20335;-73
2022/12/10 07:06:33;;;;;;;31.30;11.20;;;;;;;1.84;100.00;95082.06;5059160;28;20224;-72
2022/12/10 07:08:59;;;;;;;25.13;9.57;;;;;;;1.88;100.00;95087.78;5059922;28;20208;-73
2022/12/10 07:11:30;;;;;;;25.87;10.13;;;;;;;1.88;100.00;95085.16;5059358;28;20591;-73
2022/12/10 07:13:57;;;;;;;28.80;10.97;;;;;;;1.93;100.00;95086.34;5058612;28;20196;-73
2022/12/10 07:16:26;;;;;;;25.07;10.87;;;;;;;2.01;100.00;95085.56;5059069;28;20593;-73
2022/12/10 07:18:53;;;;;;;30.50;12.20;;;;;;;1.97;100.00;95092.03;5059379;28;20699;-74
2022/12/10 07:21:22;;;;;;;26.07;10.47;;;;;;;2.04;100.00;95083.50;5059601;28;20214;-72
2022/12/10 07:23:49;;;;;;;25.33;10.80;;;;;;;1.96;100.00;95082.63;5058332;28;20234;-74
2022/12/10 07:26:16;;;;;;;28.73;12.33;;;;;;;1.72;100.00;95079.06;5058904;28;20225;-73
2022/12/10 07:28:43;;;;;;;31.20;10.67;;;;;;;1.73;100.00;95076.28;5060127;28;20208;-72
2022/12/10 07:31:10;;;;;;;30.20;10.90;;;;;;;1.78;100.00;95078.44;5059049;28;20204;-73
2022/12/10 07:33:37;;;;;;;31.17;11.57;;;;;;;1.86;100.00;95074.94;5058206;28;20215;-73
2022/12/10 07:36:05;;;;;;;33.67;12.17;;;;;;;1.95;100.00;95068.81;5057762;28;20232;-73
2022/12/10 07:38:32;;;;;;;27.93;10.73;;;;;;;1.92;100.00;95076.94;5058480;28;21327;-72
2022/12/10 07:40:58;;;;;;;31.13;11.70;;;;;;;1.90;100.00;95073.66;5058618;28;20205;-71
2022/12/10 07:43:25;;;;;;;28.30;11.53;;;;;;;1.99;100.00;95082.34;5058734;28;20600;-71
2022/12/10 07:45:53;;;;;;;28.43;11.17;;;;;;;1.97;100.00;95077.28;5058400;28;20217;-71
2022/12/10 07:48:19;;;;;;;28.60;10.63;;;;;;;1.97;100.00;95079.91;5058563;28;21209;-71
2022/12/10 07:50:46;;;;;;;29.37;12.20;;;;;;;2.01;100.00;95098.56;5058655;28;20204;-71
2022/12/10 07:53:12;;;;;;;29.50;11.87;;;;;;;1.98;100.00;95104.06;5059011;28;20203;-71
2022/12/10 07:55:39;;;;;;;27.33;11.03;;;;;;;1.92;100.00;95109.88;5058079;28;20971;-73
2022/12/10 07:58:05;;;;;;;29.33;10.47;;;;;;;2.05;100.00;95110.28;5058536;28;20222;-73
2022/12/10 08:00:32;;;;;;;27.13;11.20;;;;;;;2.05;100.00;95099.88;5058684;28;20213;-72
2022/12/10 08:03:00;;;;;;;29.10;11.53;;;;;;;2.13;100.00;95099.94;5059347;28;20225;-72
2022/12/10 08:05:26;;;;;;;27.63;11.00;;;;;;;2.07;100.00;95088.38;5056753;28;20421;-73
2022/12/10 08:07:53;;;;;;;30.90;11.07;;;;;;;2.08;100.00;95095.19;5058674;28;20240;-73
2022/12/10 08:10:19;;;;;;;35.63;11.20;;;;;;;2.15;100.00;95092.81;5058629;28;20208;-73
2022/12/10 08:12:46;;;;;;;30.77;11.50;;;;;;;2.00;100.00;95097.75;5058125;28;20220;-73
2022/12/10 08:15:12;;;;;;;30.30;10.90;;;;;;;1.93;100.00;95093.31;5056972;28;20204;-73
2022/12/10 08:17:39;;;;;;;28.23;11.80;;;;;;;2.15;100.00;95080.66;5058353;28;20237;-72
2022/12/10 08:20:09;;;;;;;27.73;11.57;;;;;;;2.28;100.00;95085.41;5057812;28;20253;-74
2022/12/10 08:22:36;;;;;;;30.07;11.00;;;;;;;2.27;100.00;95091.59;5057688;28;20205;-74
2022/12/10 08:25:03;;;;;;;31.40;11.60;;;;;;;2.38;100.00;95083.50;5057616;28;20234;-72
2022/12/10 08:27:29;;;;;;;29.67;11.77;;;;;;;2.42;100.00;95104.66;5057868;28;20226;-73
2022/12/10 08:29:56;;;;;;;33.97;11.63;;;;;;;2.39;100.00;95095.53;5057688;28;20259;-72
2022/12/10 08:32:22;;;;;;;33.40;12.27;;;;;;;2.51;100.00;95097.72;5058513;28;20240;-71
2022/12/10 08:34:49;;;;;;;30.00;11.17;;;;;;;2.48;100.00;95103.19;5057028;28;21184;-72
2022/12/10 08:37:17;;;;;;;33.43;10.60;;;;;;;2.59;100.00;95105.53;5057424;28;20224;-72
2022/12/10 08:39:43;;;;;;;31.57;11.93;;;;;;;2.53;100.00;95104.38;5057332;28;20210;-72
2022/12/10 08:42:10;;;;;;;32.63;11.73;;;;;;;2.59;100.00;95101.13;5057528;28;20211;-72
2022/12/10 08:44:36;;;;;;;31.00;11.07;;;;;;;2.72;100.00;95100.69;5056740;28;20234;-71
2022/12/10 08:47:03;;;;;;;29.47;11.20;;;;;;;2.61;100.00;95096.59;5057182;28;20227;-72
2022/12/10 08:49:30;;;;;;;28.53;10.67;;;;;;;2.78;100.00;95105.28;5057688;28;20200;-72
2022/12/10 08:51:56;;;;;;;25.77;11.23;;;;;;;2.87;100.00;95099.94;5057469;28;20204;-72
2022/12/10 08:54:24;;;;;;;27.57;11.37;;;;;;;2.74;100.00;95104.78;5055750;28;20200;-71
2022/12/10 08:56:51;;;;;;;32.37;11.50;;;;;;;2.84;100.00;95102.88;5057561;28;20874;-71
2022/12/10 08:59:17;;;;;;;33.20;9.80;;;;;;;2.64;100.00;95103.28;5057449;28;20219;-72
2022/12/10 09:01:44;;;;;;;31.70;12.33;;;;;;;2.48;100.00;95111.00;5056564;28;20244;-72
2022/12/10 09:04:12;;;;;;;33.20;11.03;;;;;;;2.46;100.00;95102.56;5056737;28;20227;-72
2022/12/10 09:06:39;;;;;;;30.77;11.57;;;;;;;2.13;100.00;95110.34;5057000;28;20223;-71
2022/12/10 09:09:05;;;;;;;26.50;10.63;;;;;;;2.24;100.00;95115.25;5057216;28;20218;-71
2022/12/10 09:11:35;;;;;;;25.57;10.40;;;;;;;2.27;100.00;95122.78;5057385;28;20701;-71
2022/12/10 09:14:01;;;;;;;26.80;11.37;;;;;;;2.43;100.00;95121.88;5056472;28;20571;-72
2022/12/10 09:16:29;;;;;;;33.77;12.07;;;;;;;2.26;100.00;95118.53;5056981;28;20219;-71
2022/12/10 09:18:56;;;;;;;30.80;11.37;;;;;;;2.37;100.00;95136.44;5057784;28;20218;-71
2022/12/10 09:21:22;;;;;;;30.63;11.30;;;;;;;2.40;100.00;95138.75;5057320;28;20209;-72
2022/12/10 09:23:51;;;;;;;26.53;11.60;;;;;;;2.36;100.00;95138.25;5055950;28;20223;-71
2022/12/10 09:26:18;;;;;;;34.40;12.77;;;;;;;2.50;100.00;95133.28;5056419;28;20227;-71
2022/12/10 09:28:47;;;;;;;32.20;12.47;;;;;;;2.60;100.00;95133.97;5057170;28;20695;-72
2022/12/10 09:31:16;;;;;;;30.13;10.60;;;;;;;2.54;100.00;95133.78;5056152;28;20219;-72
2022/12/10 09:33:43;;;;;;;29.37;11.67;;;;;;;2.47;100.00;95133.59;5056651;28;20203;-71
2022/12/10 09:36:11;;;;;;;30.53;11.67;;;;;;;2.65;100.00;95133.53;5056506;28;20281;-71
2022/12/10 09:38:41;;;;;;;30.83;10.70;;;;;;;2.41;100.00;95139.41;5057075;28;20201;-72
2022/12/10 09:41:21;;;;;;;29.03;10.90;;;;;;;2.52;100.00;95140.91;5060490;28;20203;-72
2022/12/10 09:43:53;;;;;;;30.07;11.43;;;;;;;2.66;100.00;95128.16;5056367;28;20231;-72
2022/12/10 09:46:27;;;;;;;30.37;11.97;;;;;;;2.64;100.00;95126.69;5056636;28;20235;-73
2022/12/10 09:49:02;;;;;;;30.93;11.63;;;;;;;2.51;100.00;95129.72;5056897;28;20207;-72
2022/12/10 09:51:32;;;;;;;26.10;11.13;;;;;;;2.45;100.00;95132.91;5056673;28;20206;-71
2022/12/10 09:54:00;;;;;;;31.30;11.87;;;;;;;2.46;100.00;95144.94;5056225;28;20202;-72
2022/12/10 09:56:32;;;;;;;30.13;10.83;;;;;;;2.56;100.00;95137.06;5056604;28;20230;-73
2022/12/10 09:59:05;;;;;;;30.83;10.87;;;;;;;2.46;100.00;95142.34;5056806;28;20213;-72
2022/12/10 10:01:35;;;;;;;29.10;11.03;;;;;;;2.68;100.00;95126.19;5056183;28;20201;-73
2022/12/10 10:04:04;;;;;;;33.47;12.23;;;;;;;2.89;100.00;95138.78;5055431;28;20228;-73
2022/12/10 10:06:31;;;;;;;28.83;10.87;;;;;;;2.84;100.00;95128.88;5056597;28;20230;-72
2022/12/10 10:09:01;;;;;;;33.90;11.93;;;;;;;3.01;100.00;95122.75;5056684;28;20297;-73
2022/12/10 10:11:31;;;;;;;27.77;11.17;;;;;;;3.00;100.00;95126.31;5056603;28;21057;-73
2022/12/10 10:14:04;;;;;;;37.23;12.50;;;;;;;3.01;100.00;95122.75;5064238;28;20288;-70
2022/12/10 10:16:35;;;;;;;30.57;12.27;;;;;;;3.11;100.00;95134.63;5066931;28;20233;-71
2022/12/10 10:19:05;;;;;;;33.03;11.80;;;;;;;3.04;100.00;95132.81;5065499;28;20694;-71
2022/12/10 10:21:36;;;;;;;32.20;11.73;;;;;;;2.90;100.00;95146.44;5070254;28;20207;-72
2022/12/10 10:24:03;;;;;;;29.73;11.27;;;;;;;2.85;100.00;95153.91;5067386;28;20813;-72
2022/12/10 10:26:30;;;;;;;30.73;10.83;;;;;;;2.80;100.00;95155.34;5067600;28;20219;-70
2022/12/10 10:28:59;;;;;;;35.20;12.40;;;;;;;2.98;100.00;95153.47;5067372;28;20295;-70
2022/12/10 10:31:31;;;;;;;25.67;10.20;;;;;;;2.87;100.00;95151.16;5065947;28;20680;-70
2022/12/10 10:34:00;;;;;;;33.43;12.13;;;;;;;2.79;100.00;95148.50;5067070;28;20291;-73
2022/12/10 10:36:30;;;;;;;31.40;12.03;;;;;;;3.01;100.00;95142.75;5065865;28;20582;-70
2022/12/10 10:38:56;;;;;;;29.00;10.97;;;;;;;2.83;100.00;95135.03;5067617;28;20840;-71
2022/12/10 10:41:25;;;;;;;27.43;10.60;;;;;;;3.03;100.00;95128.63;5067292;28;20238;-71
2022/12/10 10:44:00;;;;;;;25.83;10.03;;;;;;;2.97;100.00;95137.03;5065493;28;20224;-70
2022/12/10 10:46:28;;;;;;;24.90;9.90;;;;;;;2.62;100.00;95147.66;5059444;28;20215;-71
2022/12/10 10:49:13;;;;;;;24.53;10.10;;;;;;;2.86;100.00;95139.91;5059279;28;20215;-73
2022/12/10 10:51:44;;;;;;;23.37;9.20;;;;;;;2.86;100.00;95137.31;5060030;28;20353;-73
2022/12/10 10:54:10;;;;;;;28.53;10.07;;;;;;;2.81;100.00;95136.97;5058918;28;20223;-73
2022/12/10 10:56:42;;;;;;;25.87;10.57;;;;;;;2.81;100.00;95136.16;5059568;28;20238;-74
2022/12/10 10:59:30;;;;;;;29.67;10.00;;;;;;;2.85;100.00;95140.91;5059123;28;20213;-73
2022/12/10 11:02:04;;;;;;;31.27;11.23;;;;;;;2.96;100.00;95145.81;5059932;28;20204;-73
2022/12/10 11:04:37;;;;;;;33.90;12.17;;;;;;;2.85;100.00;95142.69;5058071;28;20260;-72
2022/12/10 11:07:05;;;;;;;27.80;10.47;;;;;;;2.78;100.00;95154.69;5058820;28;20224;-74
2022/12/10 11:09:34;;;;;;;25.40;9.93;;;;;;;2.88;100.00;95135.38;5059717;28;20547;-71
2022/12/10 11:12:02;;;;;;;29.63;11.40;;;;;;;2.90;100.00;95143.84;5059292;28;20212;-74
2022/12/10 11:14:32;;;;;;;27.10;10.30;;;;;;;2.91;100.00;95137.66;5058531;28;20208;-74
2022/12/10 11:17:17;;;;;;;28.80;11.40;;;;;;;2.93;100.00;95140.94;5059597;28;20228;-74
2022/12/10 11:19:54;;;;;;;22.00;8.73;;;;;;;2.85;100.00;95140.09;5058935;28;20203;-75
2022/12/10 11:22:23;;;;;;;27.17;10.63;;;;;;;2.81;100.00;95131.78;5059795;28;20203;-73
2022/12/10 11:24:50;;;;;;;27.10;10.37;;;;;;;2.92;100.00;95133.28;5057564;28;20223;-73
2022/12/10 11:27:37;;;;;;;27.53;9.60;;;;;;;2.90;100.00;95127.41;5058355;28;20219;-73
2022/12/10 11:30:06;;;;;;;30.07;10.60;;;;;;;2.92;100.00;95123.69;5058931;28;20291;-72
2022/12/10 11:32:51;;;;;;;25.60;9.87;;;;;;;2.91;100.00;95127.25;5058804;28;20200;-73